createdAt,value
2023-04-02T00:02:33.955Z,9.05
2023-04-02T00:06:01.797Z,8.95
2023-04-02T00:09:39.116Z,8.95
2023-04-02T00:13:25.796Z,8.91
2023-04-02T00:16:52.847Z,9.01
2023-04-02T00:20:32.681Z,8.89
2023-04-02T00:24:17.155Z,8.85
2023-04-02T00:27:52.271Z,8.96
2023-04-02T00:31:19.256Z,8.84
2023-04-02T00:34:53.609Z,8.86
2023-04-02T00:38:26.894Z,8.89
2023-04-02T00:42:08.905Z,8.89
2023-04-02T00:45:37.212Z,8.88
2023-04-02T00:49:21.516Z,8.94
2023-04-02T00:52:58.435Z,9.02
2023-04-02T00:56:34.575Z,9.06
2023-04-02T01:00:23.995Z,9.05
2023-04-02T01:04:01.548Z,9.06
2023-04-02T01:07:53.593Z,9.19
2023-04-02T01:11:32.017Z,9.19
2023-04-02T01:15:14.641Z,9.13
2023-04-02T01:18:53.375Z,9.16
2023-04-02T01:22:48.277Z,9.06
2023-04-02T01:26:27.763Z,9.13
2023-04-02T01:29:56.867Z,9.10
2023-04-02T01:33:30.258Z,9.06
2023-04-02T01:37:25.118Z,9.11
2023-04-02T01:41:09.588Z,9.09
2023-04-02T01:44:39.926Z,9.19
2023-04-02T01:48:24.846Z,9.10
2023-04-02T01:51:56.865Z,9.18
2023-04-02T01:55:30.294Z,9.25
2023-04-02T01:59:02.922Z,9.18
2023-04-02T02:02:30.886Z,9.20
2023-04-02T02:05:46.974Z,9.26
2023-04-02T02:09:26.088Z,9.27
2023-04-02T02:13:01.910Z,9.28
2023-04-02T02:16:34.644Z,9.28
2023-04-02T02:20:17.916Z,9.22
2023-04-02T02:23:34.569Z,9.16
2023-04-02T02:27:22.925Z,9.22
2023-04-02T02:30:59.567Z,9.22
2023-04-02T02:34:34.372Z,9.24
2023-04-02T02:39:03.920Z,9.16
2023-04-02T02:42:51.384Z,9.22
2023-04-02T02:46:22.356Z,9.24
2023-04-02T02:49:50.938Z,9.21
2023-04-02T02:53:30.832Z,9.25
2023-04-02T02:57:02.578Z,9.29
2023-04-02T03:00:43.748Z,9.21
2023-04-02T03:04:23.892Z,9.15
2023-04-02T03:07:52.588Z,9.15
2023-04-02T03:11:38.210Z,9.13
2023-04-02T03:15:27.666Z,9.21
2023-04-02T03:19:01.297Z,9.09
2023-04-02T03:22:41.644Z,9.17
2023-04-02T03:26:15.948Z,9.05
2023-04-02T03:30:11.036Z,9.09
2023-04-02T03:33:48.129Z,9.13
2023-04-02T03:37:14.400Z,9.05
2023-04-02T03:41:17.673Z,8.98
2023-04-02T03:44:59.755Z,9.06
2023-04-02T03:48:46.377Z,8.90
2023-04-02T03:52:30.579Z,8.84
2023-04-02T03:55:57.686Z,8.72
2023-04-02T03:59:35.960Z,8.63
2023-04-02T04:03:16.725Z,8.65
2023-04-02T04:06:34.333Z,8.53
2023-04-02T04:09:52.744Z,8.47
2023-04-02T04:13:26.029Z,8.50
2023-04-02T04:17:09.550Z,8.50
2023-04-02T04:20:50.358Z,8.44
2023-04-02T04:24:28.320Z,8.43
2023-04-02T04:28:27.013Z,8.43
2023-04-02T04:31:55.856Z,8.61
2023-04-02T04:35:33.512Z,8.50
2023-04-02T04:39:05.890Z,8.58
2023-04-02T04:42:40.334Z,8.56
2023-04-02T04:46:16.620Z,8.57
2023-04-02T04:50:06.343Z,8.60
2023-04-02T04:53:51.610Z,8.66
2023-04-02T04:57:35.188Z,8.53
2023-04-02T05:01:38.912Z,8.55
2023-04-02T05:05:03.604Z,8.57
2023-04-02T05:08:27.359Z,8.60
2023-04-02T05:12:27.387Z,8.64
2023-04-02T05:16:21.395Z,8.72
2023-04-02T05:20:22.680Z,8.76
2023-04-02T05:24:40.183Z,9.01
2023-04-02T05:28:10.346Z,9.08
2023-04-02T05:31:49.287Z,9.32
2023-04-02T05:35:07.792Z,9.47
2023-04-02T05:38:37.939Z,9.61
2023-04-02T05:42:22.722Z,9.71
2023-04-02T05:45:54.653Z,9.90
2023-04-02T05:49:48.164Z,10.11
2023-04-02T05:53:41.612Z,10.32
2023-04-02T05:57:46.794Z,10.58
2023-04-02T06:01:18.731Z,10.83
2023-04-02T06:04:59.987Z,11.00
2023-04-02T06:08:52.154Z,11.08
2023-04-02T06:12:49.287Z,11.29
2023-04-02T06:15:58.721Z,11.37
2023-04-02T06:19:31.828Z,11.60
2023-04-02T06:23:41.239Z,11.80
2023-04-02T06:27:10.505Z,11.96
2023-04-02T06:31:07.736Z,12.20
2023-04-02T06:34:32.609Z,12.35
2023-04-02T06:38:06.527Z,12.01
2023-04-02T06:42:13.768Z,12.02
2023-04-02T06:45:45.323Z,12.23
2023-04-02T06:49:11.001Z,12.40
2023-04-02T06:53:06.403Z,12.45
2023-04-02T06:56:58.705Z,12.66
2023-04-02T07:00:43.290Z,13.10
2023-04-02T07:03:48.230Z,12.95
2023-04-02T07:07:00.574Z,13.36
2023-04-02T07:10:32.328Z,13.34
2023-04-02T07:13:45.102Z,13.46
2023-04-02T07:17:22.027Z,13.62
2023-04-02T07:20:45.055Z,13.32
2023-04-02T07:24:29.005Z,13.43
2023-04-02T07:27:48.374Z,13.90
2023-04-02T07:31:29.064Z,13.69
2023-04-02T07:35:07.941Z,14.25
2023-04-02T07:38:39.401Z,13.83
2023-04-02T07:42:18.748Z,14.17
2023-04-02T07:45:46.431Z,14.50
2023-04-02T07:49:15.286Z,14.91
2023-04-02T07:53:17.143Z,14.93
2023-04-02T07:57:03.110Z,15.47
2023-04-02T08:00:40.369Z,15.19
2023-04-02T08:04:19.456Z,15.47
2023-04-02T08:07:34.224Z,15.59
2023-04-02T08:10:58.590Z,15.17
2023-04-02T08:14:26.626Z,15.67
2023-04-02T08:18:15.861Z,15.49
2023-04-02T08:21:19.476Z,15.59
2023-04-02T08:24:37.841Z,15.79
2023-04-02T08:27:48.274Z,15.64
2023-04-02T08:31:13.712Z,15.42
2023-04-02T08:34:51.965Z,15.67
2023-04-02T08:38:16.794Z,15.37
2023-04-02T08:41:53.316Z,15.30
2023-04-02T08:45:41.945Z,15.40
2023-04-02T08:49:39.499Z,15.82
2023-04-02T08:52:48.384Z,16.56
2023-04-02T08:56:10.017Z,16.64
2023-04-02T08:59:42.028Z,17.74
2023-04-02T09:03:19.830Z,18.15
2023-04-02T09:06:25.324Z,18.21
2023-04-02T09:09:52.979Z,17.45
2023-04-02T09:13:41.756Z,17.38
2023-04-02T09:16:55.574Z,17.64
2023-04-02T09:20:18.272Z,17.59
2023-04-02T09:23:26.301Z,17.79
2023-04-02T09:26:32.197Z,17.98
2023-04-02T09:29:46.639Z,17.96
2023-04-02T09:33:18.446Z,17.36
2023-04-02T09:36:48.939Z,16.89
2023-04-02T09:39:52.053Z,16.99
2023-04-02T09:43:31.655Z,17.16
2023-04-02T09:47:00.397Z,17.55
2023-04-02T09:50:35.063Z,17.12
2023-04-02T09:53:41.857Z,16.86
2023-04-02T09:57:25.457Z,15.35
2023-04-02T10:00:32.175Z,16.10
2023-04-02T10:03:37.453Z,15.83
2023-04-02T10:06:50.419Z,14.99
2023-04-02T10:10:26.373Z,15.33
2023-04-02T10:13:35.912Z,14.76
2023-04-02T10:17:33.005Z,14.12
2023-04-02T10:20:50.472Z,14.97
2023-04-02T10:24:19.031Z,14.68
2023-04-02T10:27:42.516Z,14.56
2023-04-02T10:31:11.442Z,14.49
2023-04-02T10:34:23.443Z,14.21
2023-04-02T10:37:52.992Z,13.99
2023-04-02T10:41:33.489Z,14.83
2023-04-02T10:44:54.396Z,14.87
2023-04-02T10:48:20.920Z,15.87
2023-04-02T10:51:32.353Z,15.99
2023-04-02T10:55:14.771Z,15.27
2023-04-02T10:59:04.769Z,14.61
2023-04-02T11:02:28.345Z,15.29
2023-04-02T11:05:44.128Z,14.91
2023-04-02T11:08:52.146Z,15.75
2023-04-02T11:11:58.979Z,15.78
2023-04-02T11:15:02.931Z,16.30
2023-04-02T11:18:36.186Z,16.71
2023-04-02T11:21:55.009Z,16.16
2023-04-02T11:25:20.680Z,15.71
2023-04-02T11:28:35.662Z,16.47
2023-04-02T11:32:20.782Z,17.06
2023-04-02T11:35:43.562Z,18.38
2023-04-02T11:39:01.875Z,19.36
2023-04-02T11:42:19.046Z,19.77
2023-04-02T11:45:52.748Z,18.48
2023-04-02T11:49:37.337Z,17.77
2023-04-02T11:52:48.945Z,18.23
2023-04-02T11:56:21.550Z,16.65
2023-04-02T12:00:16.217Z,16.62
2023-04-02T12:03:50.486Z,15.88
2023-04-02T12:07:27.377Z,16.21
2023-04-02T12:11:01.066Z,15.23
2023-04-02T12:14:46.430Z,15.59
2023-04-02T12:18:32.970Z,16.51
2023-04-02T12:21:38.950Z,17.43
2023-04-02T12:24:47.313Z,17.27
2023-04-02T12:28:09.486Z,17.66
2023-04-02T12:31:35.952Z,18.40
2023-04-02T12:34:46.220Z,18.11
2023-04-02T12:37:53.888Z,19.09
2023-04-02T12:41:33.665Z,17.98
2023-04-02T12:44:49.342Z,18.72
2023-04-02T12:47:53.995Z,18.44
2023-04-02T12:51:18.555Z,18.27
2023-04-02T12:54:22.256Z,18.23
2023-04-02T12:57:32.000Z,17.17
2023-04-02T13:00:37.475Z,18.10
2023-04-02T13:04:12.748Z,17.81
2023-04-02T13:07:19.981Z,18.10
2023-04-02T13:10:54.628Z,17.81
2023-04-02T13:14:22.307Z,17.62
2023-04-02T13:17:47.417Z,18.05
2023-04-02T13:24:45.868Z,17.41
2023-04-02T13:28:10.111Z,17.27
2023-04-02T13:31:17.382Z,17.07
2023-04-02T13:34:44.877Z,17.16
2023-04-02T13:37:50.155Z,17.17
2023-04-02T13:41:21.634Z,17.43
2023-04-02T13:44:56.074Z,17.71
2023-04-02T13:48:18.264Z,18.34
2023-04-02T13:51:46.612Z,18.26
2023-04-02T14:13:26.078Z,16.49
2023-04-02T14:17:13.560Z,15.99
2023-04-02T14:21:01.154Z,15.88
2023-04-02T14:24:40.797Z,15.94
2023-04-02T14:28:06.664Z,16.06
2023-04-02T14:31:21.786Z,16.91
2023-04-02T14:34:52.489Z,16.79
2023-04-02T14:38:33.817Z,16.42
2023-04-02T14:42:22.210Z,16.51
2023-04-02T14:45:28.307Z,17.00
2023-04-02T14:48:33.277Z,16.75
2023-04-02T14:51:56.720Z,16.25
2023-04-02T14:55:04.344Z,16.01
2023-04-02T14:58:31.302Z,15.85
2023-04-02T15:01:44.401Z,15.24
2023-04-02T15:04:59.521Z,15.03
2023-04-02T15:08:22.681Z,14.79
2023-04-02T15:11:37.426Z,14.76
2023-04-02T15:14:49.107Z,14.68
2023-04-02T15:17:51.771Z,14.45
2023-04-02T15:21:02.398Z,14.63
2023-04-02T15:24:42.831Z,14.26
2023-04-02T15:28:11.911Z,13.93
2023-04-02T15:31:15.272Z,14.12
2023-04-02T15:34:32.399Z,13.70
2023-04-02T15:37:55.404Z,13.47
2023-04-02T15:41:07.890Z,12.68
2023-04-02T15:44:16.112Z,11.39
2023-04-02T15:47:37.122Z,10.55
2023-04-02T15:50:52.630Z,10.41
2023-04-02T15:54:43.997Z,10.13
2023-04-02T15:57:53.363Z,10.03
2023-04-02T16:01:08.767Z,9.91
2023-04-02T16:05:11.378Z,9.87
2023-04-02T16:08:53.107Z,9.98
2023-04-02T16:12:19.267Z,9.95
2023-04-02T16:16:13.638Z,10.13
2023-04-02T16:20:17.889Z,10.16
2023-04-02T16:23:58.379Z,10.30
2023-04-02T16:27:25.392Z,10.49
2023-04-02T16:31:07.129Z,10.62
2023-04-02T16:34:30.826Z,10.75
2023-04-02T16:38:09.472Z,10.91
2023-04-02T16:41:16.304Z,10.95
2023-04-02T16:44:29.192Z,10.94
2023-04-02T16:47:45.044Z,10.90
2023-04-02T16:50:59.879Z,11.04
2023-04-02T16:54:52.208Z,11.12
2023-04-02T16:58:02.593Z,10.91
2023-04-02T17:01:27.820Z,10.98
2023-04-02T17:04:58.370Z,10.85
2023-04-02T17:08:30.209Z,10.63
2023-04-02T17:11:36.765Z,10.67
2023-04-02T17:14:47.840Z,10.48
2023-04-02T17:17:54.746Z,10.42
2023-04-02T17:21:01.929Z,10.21
2023-04-02T17:24:17.540Z,10.15
2023-04-02T17:27:53.130Z,9.99
2023-04-02T17:31:00.564Z,9.99
2023-04-02T17:34:27.843Z,9.87
2023-04-02T17:37:54.914Z,9.81
2023-04-02T17:41:41.677Z,9.74
2023-04-02T17:45:14.255Z,9.77
2023-04-02T17:48:37.983Z,9.71
2023-04-02T17:52:13.221Z,9.67
2023-04-02T17:55:24.129Z,9.59
2023-04-02T17:59:08.935Z,9.46
2023-04-02T18:02:18.697Z,9.33
2023-04-02T18:05:27.648Z,9.27
2023-04-02T18:09:05.436Z,9.22
2023-04-02T18:12:49.495Z,9.22
2023-04-02T18:16:58.555Z,9.10
2023-04-02T18:20:40.544Z,8.95
2023-04-02T18:24:54.216Z,8.94
2023-04-02T18:28:39.888Z,8.77
2023-04-02T18:32:26.788Z,8.61
2023-04-02T18:35:45.124Z,8.66
2023-04-02T18:39:24.486Z,8.69
2023-04-02T18:43:39.359Z,8.68
2023-04-02T18:46:59.007Z,8.65
2023-04-02T18:50:29.795Z,8.68
2023-04-02T18:53:42.753Z,8.61
2023-04-02T18:56:53.476Z,8.68
2023-04-02T19:00:30.986Z,8.56
2023-04-02T19:03:44.113Z,8.51
2023-04-02T19:07:03.194Z,8.46
2023-04-02T19:10:31.371Z,8.43
2023-04-02T19:13:37.451Z,8.47
2023-04-02T19:16:44.794Z,8.37
2023-04-02T19:20:16.434Z,8.41
2023-04-02T19:23:39.753Z,8.33
2023-04-02T19:26:51.853Z,8.31
2023-04-02T19:30:41.016Z,8.34
2023-04-02T19:33:48.780Z,8.21
2023-04-02T19:37:11.456Z,8.08
2023-04-02T19:40:37.741Z,8.13
2023-04-02T19:43:46.099Z,7.98
2023-04-02T19:47:11.287Z,7.99
2023-04-02T19:50:19.246Z,7.90
2023-04-02T19:53:22.620Z,7.93
2023-04-02T19:56:28.776Z,7.89
2023-04-02T19:59:32.716Z,7.93
2023-04-02T20:03:20.460Z,7.91
2023-04-02T20:07:00.104Z,7.88
2023-04-02T20:10:05.839Z,7.82
2023-04-02T20:13:11.915Z,7.74
2023-04-02T20:16:18.490Z,7.73
2023-04-02T20:19:22.183Z,7.76
2023-04-02T20:22:45.219Z,7.70
2023-04-02T20:26:09.316Z,7.89
2023-04-02T20:29:12.367Z,7.89
2023-04-02T20:32:20.741Z,7.85
2023-04-02T20:35:43.430Z,7.80
2023-04-02T20:38:47.912Z,7.79
2023-04-02T20:41:50.571Z,7.87
2023-04-02T20:45:15.996Z,7.74
2023-04-02T20:48:53.005Z,7.67
2023-04-02T20:52:42.532Z,7.83
2023-04-02T20:56:29.595Z,7.61
2023-04-02T21:00:15.398Z,7.77
2023-04-02T21:04:03.046Z,7.75
2023-04-02T21:07:55.561Z,7.57
2023-04-02T21:11:25.625Z,7.49
2023-04-02T21:15:04.376Z,7.40
2023-04-02T21:23:01.543Z,7.22
2023-04-02T21:26:38.205Z,7.22
2023-04-02T21:34:34.146Z,7.23
2023-04-02T21:38:09.418Z,7.34
2023-04-02T21:41:51.034Z,7.35
2023-04-02T21:45:16.316Z,7.42
2023-04-02T21:48:45.764Z,7.43
2023-04-02T21:52:17.790Z,7.44
2023-04-02T21:56:05.029Z,7.56
2023-04-02T21:59:27.792Z,7.61
2023-04-02T22:03:18.426Z,7.77
2023-04-02T22:06:46.789Z,7.85
2023-04-02T22:10:27.200Z,7.88
2023-04-02T22:14:19.087Z,7.97
2023-04-02T22:17:27.407Z,7.95
2023-04-02T22:21:07.383Z,7.78
2023-04-02T22:24:43.701Z,7.66
2023-04-02T22:28:21.746Z,7.64
2023-04-02T22:32:16.361Z,7.64
2023-04-02T22:35:36.966Z,7.66
2023-04-02T22:39:29.916Z,7.59
2023-04-02T22:42:45.212Z,7.56
2023-04-02T22:46:30.734Z,7.50
2023-04-02T22:50:27.446Z,7.37
2023-04-02T22:53:56.508Z,7.22
2023-04-02T22:57:36.120Z,7.14
2023-04-02T23:01:38.933Z,7.13
2023-04-02T23:05:11.093Z,7.02
2023-04-02T23:09:23.159Z,7.09
